sensor_id;sensor_type;location;lat;lon;timestamp;temperature;humidity
9762;DHT22;4920;49.594;11.022;2023-04-24T00:00:44;10.70;99.90
9762;DHT22;4920;49.594;11.022;2023-04-24T00:03:14;10.70;99.90
9762;DHT22;4920;49.594;11.022;2023-04-24T00:05:42;10.60;99.90
9762;DHT22;4920;49.594;11.022;2023-04-24T00:08:13;10.60;99.90
9762;DHT22;4920;49.594;11.022;2023-04-24T00:10:41;10.60;99.90
9762;DHT22;4920;49.594;11.022;2023-04-24T00:13:10;10.70;99.90
9762;DHT22;4920;49.594;11.022;2023-04-24T00:15:39;10.60;99.90
9762;DHT22;4920;49.594;11.022;2023-04-24T00:18:08;10.60;99.90
9762;DHT22;4920;49.594;11.022;2023-04-24T00:20:36;10.60;99.90
9762;DHT22;4920;49.594;11.022;2023-04-24T00:23:05;10.60;99.90
9762;DHT22;4920;49.594;11.022;2023-04-24T00:25:35;10.50;99.90
9762;DHT22;4920;49.594;11.022;2023-04-24T00:28:03;10.50;99.90
9762;DHT22;4920;49.594;11.022;2023-04-24T00:30:32;10.50;99.90
9762;DHT22;4920;49.594;11.022;2023-04-24T00:33:01;10.50;99.90
9762;DHT22;4920;49.594;11.022;2023-04-24T00:35:30;10.50;99.90
9762;DHT22;4920;49.594;11.022;2023-04-24T00:37:58;10.50;99.90
9762;DHT22;4920;49.594;11.022;2023-04-24T00:40:27;10.50;99.90
9762;DHT22;4920;49.594;11.022;2023-04-24T00:42:57;10.50;99.90
9762;DHT22;4920;49.594;11.022;2023-04-24T00:45:26;10.40;99.90
9762;DHT22;4920;49.594;11.022;2023-04-24T00:47:56;10.40;99.90
9762;DHT22;4920;49.594;11.022;2023-04-24T00:50:25;10.40;99.90
9762;DHT22;4920;49.594;11.022;2023-04-24T00:52:54;10.40;99.90
9762;DHT22;4920;49.594;11.022;2023-04-24T00:55:24;10.30;99.90
9762;DHT22;4920;49.594;11.022;2023-04-24T00:57:54;10.30;99.90
9762;DHT22;4920;49.594;11.022;2023-04-24T01:00:24;10.30;99.90
9762;DHT22;4920;49.594;11.022;2023-04-24T01:02:55;10.20;99.90
9762;DHT22;4920;49.594;11.022;2023-04-24T01:05:26;10.20;99.90
9762;DHT22;4920;49.594;11.022;2023-04-24T01:07:55;10.10;99.90
9762;DHT22;4920;49.594;11.022;2023-04-24T01:10:25;10.10;99.90
9762;DHT22;4920;49.594;11.022;2023-04-24T01:12:55;10.10;99.90
9762;DHT22;4920;49.594;11.022;2023-04-24T01:15:26;10.10;99.90
9762;DHT22;4920;49.594;11.022;2023-04-24T01:17:55;10.20;99.90
9762;DHT22;4920;49.594;11.022;2023-04-24T01:20:24;10.10;99.90
9762;DHT22;4920;49.594;11.022;2023-04-24T01:22:55;10.20;99.90
9762;DHT22;4920;49.594;11.022;2023-04-24T01:25:25;10.20;99.90
9762;DHT22;4920;49.594;11.022;2023-04-24T01:27:56;10.30;99.90
9762;DHT22;4920;49.594;11.022;2023-04-24T01:30:26;10.30;99.90
9762;DHT22;4920;49.594;11.022;2023-04-24T01:32:55;10.30;99.90
9762;DHT22;4920;49.594;11.022;2023-04-24T01:35:24;10.40;99.90
9762;DHT22;4920;49.594;11.022;2023-04-24T01:37:55;10.40;99.90
9762;DHT22;4920;49.594;11.022;2023-04-24T01:40:24;10.40;99.90
9762;DHT22;4920;49.594;11.022;2023-04-24T01:42:53;10.40;99.90
9762;DHT22;4920;49.594;11.022;2023-04-24T01:45:21;10.40;99.90
9762;DHT22;4920;49.594;11.022;2023-04-24T01:47:50;10.40;99.90
9762;DHT22;4920;49.594;11.022;2023-04-24T01:50:19;10.50;99.90
9762;DHT22;4920;49.594;11.022;2023-04-24T01:52:48;10.50;99.90
9762;DHT22;4920;49.594;11.022;2023-04-24T01:55:18;10.50;99.90
9762;DHT22;4920;49.594;11.022;2023-04-24T01:57:47;10.60;99.90
9762;DHT22;4920;49.594;11.022;2023-04-24T02:00:15;10.60;99.90
9762;DHT22;4920;49.594;11.022;2023-04-24T02:02:45;10.60;99.90
9762;DHT22;4920;49.594;11.022;2023-04-24T02:05:14;10.60;99.90
9762;DHT22;4920;49.594;11.022;2023-04-24T02:07:43;10.60;99.90
9762;DHT22;4920;49.594;11.022;2023-04-24T02:10:12;10.60;99.90
9762;DHT22;4920;49.594;11.022;2023-04-24T02:12:43;10.60;99.90
9762;DHT22;4920;49.594;11.022;2023-04-24T02:15:13;10.70;99.90
9762;DHT22;4920;49.594;11.022;2023-04-24T02:17:42;10.70;99.90
9762;DHT22;4920;49.594;11.022;2023-04-24T02:20:10;10.70;99.90
9762;DHT22;4920;49.594;11.022;2023-04-24T02:22:39;10.70;99.90
9762;DHT22;4920;49.594;11.022;2023-04-24T02:25:08;10.70;99.90
9762;DHT22;4920;49.594;11.022;2023-04-24T02:27:37;10.70;99.90
9762;DHT22;4920;49.594;11.022;2023-04-24T02:30:08;10.60;99.90
9762;DHT22;4920;49.594;11.022;2023-04-24T02:32:37;10.60;99.90
9762;DHT22;4920;49.594;11.022;2023-04-24T02:35:10;10.60;99.90
9762;DHT22;4920;49.594;11.022;2023-04-24T02:37:39;10.60;99.90
9762;DHT22;4920;49.594;11.022;2023-04-24T02:40:11;10.60;99.90
9762;DHT22;4920;49.594;11.022;2023-04-24T02:42:40;10.50;99.90
9762;DHT22;4920;49.594;11.022;2023-04-24T02:45:11;10.60;99.90
9762;DHT22;4920;49.594;11.022;2023-04-24T02:47:39;10.50;99.90
9762;DHT22;4920;49.594;11.022;2023-04-24T02:50:08;10.50;99.90
9762;DHT22;4920;49.594;11.022;2023-04-24T02:52:37;10.50;99.90
9762;DHT22;4920;49.594;11.022;2023-04-24T02:55:06;10.60;99.90
9762;DHT22;4920;49.594;11.022;2023-04-24T02:57:36;10.60;99.90
9762;DHT22;4920;49.594;11.022;2023-04-24T03:00:06;10.60;99.90
9762;DHT22;4920;49.594;11.022;2023-04-24T03:02:37;10.60;99.90
9762;DHT22;4920;49.594;11.022;2023-04-24T03:05:07;10.60;99.90
9762;DHT22;4920;49.594;11.022;2023-04-24T03:07:36;10.50;99.90
9762;DHT22;4920;49.594;11.022;2023-04-24T03:10:06;10.50;99.90
9762;DHT22;4920;49.594;11.022;2023-04-24T03:12:35;10.50;99.90
9762;DHT22;4920;49.594;11.022;2023-04-24T03:15:04;10.40;99.90
9762;DHT22;4920;49.594;11.022;2023-04-24T03:17:38;10.30;99.90
9762;DHT22;4920;49.594;11.022;2023-04-24T03:20:07;10.30;99.90
9762;DHT22;4920;49.594;11.022;2023-04-24T03:22:37;10.30;99.90
9762;DHT22;4920;49.594;11.022;2023-04-24T03:25:08;10.30;99.90
9762;DHT22;4920;49.594;11.022;2023-04-24T03:27:37;10.30;99.90
9762;DHT22;4920;49.594;11.022;2023-04-24T03:30:15;10.30;99.90
9762;DHT22;4920;49.594;11.022;2023-04-24T03:32:51;10.20;99.90
9762;DHT22;4920;49.594;11.022;2023-04-24T03:35:25;10.20;99.90
9762;DHT22;4920;49.594;11.022;2023-04-24T03:37:54;10.20;99.90
9762;DHT22;4920;49.594;11.022;2023-04-24T03:40:38;10.10;99.90
9762;DHT22;4920;49.594;11.022;2023-04-24T03:43:20;10.10;99.90
9762;DHT22;4920;49.594;11.022;2023-04-24T03:45:49;10.10;99.90
9762;DHT22;4920;49.594;11.022;2023-04-24T03:48:20;10.10;99.90
9762;DHT22;4920;49.594;11.022;2023-04-24T03:50:49;10.10;99.90
9762;DHT22;4920;49.594;11.022;2023-04-24T03:53:18;10.00;99.90
9762;DHT22;4920;49.594;11.022;2023-04-24T03:55:48;10.00;99.90
9762;DHT22;4920;49.594;11.022;2023-04-24T03:58:16;10.00;99.90
9762;DHT22;4920;49.594;11.022;2023-04-24T04:00:46;10.00;99.90
9762;DHT22;4920;49.594;11.022;2023-04-24T04:03:43;10.10;99.90
9762;DHT22;4920;49.594;11.022;2023-04-24T04:06:15;10.00;99.90
9762;DHT22;4920;49.594;11.022;2023-04-24T04:08:46;10.10;99.90
9762;DHT22;4920;49.594;11.022;2023-04-24T04:11:14;10.00;99.90
9762;DHT22;4920;49.594;11.022;2023-04-24T04:13:44;10.10;99.90
9762;DHT22;4920;49.594;11.022;2023-04-24T04:16:18;10.10;99.90
9762;DHT22;4920;49.594;11.022;2023-04-24T04:18:50;10.10;99.90
9762;DHT22;4920;49.594;11.022;2023-04-24T04:21:19;10.10;99.90
9762;DHT22;4920;49.594;11.022;2023-04-24T04:23:51;10.10;99.90
9762;DHT22;4920;49.594;11.022;2023-04-24T04:26:26;10.10;99.90
9762;DHT22;4920;49.594;11.022;2023-04-24T04:29:01;10.10;99.90
9762;DHT22;4920;49.594;11.022;2023-04-24T04:31:32;10.00;99.90
9762;DHT22;4920;49.594;11.022;2023-04-24T04:34:07;10.00;99.90
9762;DHT22;4920;49.594;11.022;2023-04-24T04:36:40;10.00;99.90
9762;DHT22;4920;49.594;11.022;2023-04-24T04:39:39;10.00;99.90
9762;DHT22;4920;49.594;11.022;2023-04-24T04:42:20;10.00;99.90
9762;DHT22;4920;49.594;11.022;2023-04-24T04:44:51;10.00;99.90
9762;DHT22;4920;49.594;11.022;2023-04-24T04:47:26;10.00;99.90
9762;DHT22;4920;49.594;11.022;2023-04-24T04:49:58;10.00;99.90
9762;DHT22;4920;49.594;11.022;2023-04-24T04:52:28;10.00;99.90
9762;DHT22;4920;49.594;11.022;2023-04-24T04:55:17;10.00;99.90
9762;DHT22;4920;49.594;11.022;2023-04-24T04:58:09;10.00;99.90
9762;DHT22;4920;49.594;11.022;2023-04-24T05:00:38;10.20;99.90
9762;DHT22;4920;49.594;11.022;2023-04-24T05:03:15;10.20;99.90
9762;DHT22;4920;49.594;11.022;2023-04-24T05:05:55;10.20;99.90
9762;DHT22;4920;49.594;11.022;2023-04-24T05:08:24;10.30;99.90
9762;DHT22;4920;49.594;11.022;2023-04-24T05:10:55;10.30;99.90
9762;DHT22;4920;49.594;11.022;2023-04-24T05:13:26;10.30;99.90
9762;DHT22;4920;49.594;11.022;2023-04-24T05:16:24;10.40;99.90
9762;DHT22;4920;49.594;11.022;2023-04-24T05:18:54;10.40;99.90
9762;DHT22;4920;49.594;11.022;2023-04-24T05:21:30;10.50;99.90
9762;DHT22;4920;49.594;11.022;2023-04-24T05:23:59;10.60;99.90
9762;DHT22;4920;49.594;11.022;2023-04-24T05:26:45;10.60;99.90
9762;DHT22;4920;49.594;11.022;2023-04-24T05:29:16;10.70;99.90
9762;DHT22;4920;49.594;11.022;2023-04-24T05:31:46;10.80;99.90
9762;DHT22;4920;49.594;11.022;2023-04-24T05:34:15;10.90;99.90
9762;DHT22;4920;49.594;11.022;2023-04-24T05:36:50;10.80;99.90
9762;DHT22;4920;49.594;11.022;2023-04-24T05:39:20;10.90;99.90
9762;DHT22;4920;49.594;11.022;2023-04-24T05:41:49;11.00;99.90
9762;DHT22;4920;49.594;11.022;2023-04-24T05:44:17;11.20;99.90
9762;DHT22;4920;49.594;11.022;2023-04-24T05:46:47;11.30;99.90
9762;DHT22;4920;49.594;11.022;2023-04-24T05:49:16;11.40;99.90
9762;DHT22;4920;49.594;11.022;2023-04-24T05:51:46;11.50;99.90
9762;DHT22;4920;49.594;11.022;2023-04-24T05:54:17;11.50;99.90
9762;DHT22;4920;49.594;11.022;2023-04-24T05:56:46;11.70;99.90
9762;DHT22;4920;49.594;11.022;2023-04-24T05:59:22;11.70;99.90
9762;DHT22;4920;49.594;11.022;2023-04-24T06:01:51;11.80;99.90
9762;DHT22;4920;49.594;11.022;2023-04-24T06:04:21;11.90;99.90
9762;DHT22;4920;49.594;11.022;2023-04-24T06:06:51;12.00;99.90
9762;DHT22;4920;49.594;11.022;2023-04-24T06:09:25;12.00;99.90
9762;DHT22;4920;49.594;11.022;2023-04-24T06:11:54;12.20;99.90
9762;DHT22;4920;49.594;11.022;2023-04-24T06:14:28;12.30;99.90
9762;DHT22;4920;49.594;11.022;2023-04-24T06:17:16;12.30;99.90
9762;DHT22;4920;49.594;11.022;2023-04-24T06:19:45;12.30;99.90
9762;DHT22;4920;49.594;11.022;2023-04-24T06:22:16;12.20;99.90
9762;DHT22;4920;49.594;11.022;2023-04-24T06:24:47;12.20;99.90
9762;DHT22;4920;49.594;11.022;2023-04-24T06:27:17;12.20;99.90
9762;DHT22;4920;49.594;11.022;2023-04-24T06:29:46;12.30;99.90
9762;DHT22;4920;49.594;11.022;2023-04-24T06:32:20;12.30;99.90
9762;DHT22;4920;49.594;11.022;2023-04-24T06:34:51;12.30;99.90
9762;DHT22;4920;49.594;11.022;2023-04-24T06:37:20;12.20;99.90
9762;DHT22;4920;49.594;11.022;2023-04-24T06:39:50;12.20;99.90
9762;DHT22;4920;49.594;11.022;2023-04-24T06:42:19;12.10;99.90
9762;DHT22;4920;49.594;11.022;2023-04-24T06:44:49;12.00;99.90
9762;DHT22;4920;49.594;11.022;2023-04-24T06:47:18;12.00;99.90
9762;DHT22;4920;49.594;11.022;2023-04-24T06:49:47;12.10;99.90
9762;DHT22;4920;49.594;11.022;2023-04-24T06:52:18;12.20;99.90
9762;DHT22;4920;49.594;11.022;2023-04-24T06:54:47;12.30;99.90
9762;DHT22;4920;49.594;11.022;2023-04-24T06:57:17;12.40;99.90
9762;DHT22;4920;49.594;11.022;2023-04-24T06:59:47;12.50;99.90
9762;DHT22;4920;49.594;11.022;2023-04-24T07:02:16;12.60;99.90
9762;DHT22;4920;49.594;11.022;2023-04-24T07:04:44;12.70;99.90
9762;DHT22;4920;49.594;11.022;2023-04-24T07:07:14;12.80;99.90
9762;DHT22;4920;49.594;11.022;2023-04-24T07:09:43;12.80;99.90
9762;DHT22;4920;49.594;11.022;2023-04-24T07:12:13;12.80;99.90
9762;DHT22;4920;49.594;11.022;2023-04-24T07:14:43;12.90;99.90
9762;DHT22;4920;49.594;11.022;2023-04-24T07:17:12;13.20;99.90
9762;DHT22;4920;49.594;11.022;2023-04-24T07:19:42;13.40;99.90
9762;DHT22;4920;49.594;11.022;2023-04-24T07:22:11;13.60;99.90
9762;DHT22;4920;49.594;11.022;2023-04-24T07:24:44;13.90;99.90
9762;DHT22;4920;49.594;11.022;2023-04-24T07:27:13;14.10;99.90
9762;DHT22;4920;49.594;11.022;2023-04-24T07:29:44;14.30;99.90
9762;DHT22;4920;49.594;11.022;2023-04-24T07:32:13;14.40;99.90
9762;DHT22;4920;49.594;11.022;2023-04-24T07:34:42;14.40;99.90
9762;DHT22;4920;49.594;11.022;2023-04-24T07:37:11;14.40;99.90
9762;DHT22;4920;49.594;11.022;2023-04-24T07:39:40;14.30;99.90
9762;DHT22;4920;49.594;11.022;2023-04-24T07:42:09;14.10;99.90
9762;DHT22;4920;49.594;11.022;2023-04-24T07:44:38;14.00;99.90
9762;DHT22;4920;49.594;11.022;2023-04-24T07:47:08;13.90;99.90
9762;DHT22;4920;49.594;11.022;2023-04-24T07:49:37;13.90;99.90
9762;DHT22;4920;49.594;11.022;2023-04-24T07:52:06;13.80;99.90
9762;DHT22;4920;49.594;11.022;2023-04-24T07:54:35;13.80;99.90
9762;DHT22;4920;49.594;11.022;2023-04-24T07:57:04;13.70;99.90
9762;DHT22;4920;49.594;11.022;2023-04-24T07:59:34;13.90;99.90
9762;DHT22;4920;49.594;11.022;2023-04-24T08:02:02;14.00;99.90
9762;DHT22;4920;49.594;11.022;2023-04-24T08:04:34;14.30;99.90
9762;DHT22;4920;49.594;11.022;2023-04-24T08:07:03;14.50;99.90
9762;DHT22;4920;49.594;11.022;2023-04-24T08:09:32;14.90;99.90
9762;DHT22;4920;49.594;11.022;2023-04-24T08:12:00;15.20;99.90
9762;DHT22;4920;49.594;11.022;2023-04-24T08:14:29;15.50;99.90
9762;DHT22;4920;49.594;11.022;2023-04-24T08:16:58;15.50;99.90
9762;DHT22;4920;49.594;11.022;2023-04-24T08:19:27;15.60;99.90
9762;DHT22;4920;49.594;11.022;2023-04-24T08:21:58;15.60;99.90
9762;DHT22;4920;49.594;11.022;2023-04-24T08:24:26;15.70;99.90
9762;DHT22;4920;49.594;11.022;2023-04-24T08:26:55;15.60;99.90
9762;DHT22;4920;49.594;11.022;2023-04-24T08:29:25;15.50;99.90
9762;DHT22;4920;49.594;11.022;2023-04-24T08:31:54;15.40;99.90
9762;DHT22;4920;49.594;11.022;2023-04-24T08:34:25;15.30;99.90
9762;DHT22;4920;49.594;11.022;2023-04-24T08:36:55;15.10;99.90
9762;DHT22;4920;49.594;11.022;2023-04-24T08:39:26;15.00;99.90
9762;DHT22;4920;49.594;11.022;2023-04-24T08:41:55;14.90;99.90
9762;DHT22;4920;49.594;11.022;2023-04-24T08:44:24;14.70;99.90
9762;DHT22;4920;49.594;11.022;2023-04-24T08:46:53;14.70;99.90
9762;DHT22;4920;49.594;11.022;2023-04-24T08:49:24;14.80;99.90
9762;DHT22;4920;49.594;11.022;2023-04-24T08:51:54;14.90;99.90
9762;DHT22;4920;49.594;11.022;2023-04-24T08:54:25;15.20;99.90
9762;DHT22;4920;49.594;11.022;2023-04-24T08:56:58;15.20;99.90
9762;DHT22;4920;49.594;11.022;2023-04-24T08:59:28;15.10;99.90
9762;DHT22;4920;49.594;11.022;2023-04-24T09:01:57;15.00;99.90
9762;DHT22;4920;49.594;11.022;2023-04-24T09:04:28;15.10;99.90
9762;DHT22;4920;49.594;11.022;2023-04-24T09:06:58;15.00;99.90
9762;DHT22;4920;49.594;11.022;2023-04-24T09:09:30;15.00;99.90
9762;DHT22;4920;49.594;11.022;2023-04-24T09:12:01;14.90;99.90
9762;DHT22;4920;49.594;11.022;2023-04-24T09:14:31;14.90;99.90
9762;DHT22;4920;49.594;11.022;2023-04-24T09:17:00;15.00;99.90
9762;DHT22;4920;49.594;11.022;2023-04-24T09:19:29;15.30;99.90
9762;DHT22;4920;49.594;11.022;2023-04-24T09:21:58;15.80;99.90
9762;DHT22;4920;49.594;11.022;2023-04-24T09:24:26;16.40;99.90
9762;DHT22;4920;49.594;11.022;2023-04-24T09:26:58;16.80;99.90
9762;DHT22;4920;49.594;11.022;2023-04-24T09:29:28;16.90;99.90
9762;DHT22;4920;49.594;11.022;2023-04-24T09:31:59;16.90;99.90
9762;DHT22;4920;49.594;11.022;2023-04-24T09:34:28;16.80;99.90
9762;DHT22;4920;49.594;11.022;2023-04-24T09:36:57;16.50;99.90
9762;DHT22;4920;49.594;11.022;2023-04-24T09:39:26;16.30;99.90
9762;DHT22;4920;49.594;11.022;2023-04-24T09:41:57;16.20;99.90
9762;DHT22;4920;49.594;11.022;2023-04-24T09:44:27;16.20;99.90
9762;DHT22;4920;49.594;11.022;2023-04-24T09:46:57;16.30;99.90
9762;DHT22;4920;49.594;11.022;2023-04-24T09:49:28;16.10;99.90
9762;DHT22;4920;49.594;11.022;2023-04-24T09:52:03;16.00;99.90
9762;DHT22;4920;49.594;11.022;2023-04-24T09:54:32;15.60;99.90
9762;DHT22;4920;49.594;11.022;2023-04-24T09:57:06;15.30;99.90
9762;DHT22;4920;49.594;11.022;2023-04-24T09:59:42;14.90;99.90
9762;DHT22;4920;49.594;11.022;2023-04-24T10:02:17;14.60;99.90
9762;DHT22;4920;49.594;11.022;2023-04-24T10:04:54;14.50;99.90
9762;DHT22;4920;49.594;11.022;2023-04-24T10:07:25;14.50;99.90
9762;DHT22;4920;49.594;11.022;2023-04-24T10:09:54;14.70;99.90
9762;DHT22;4920;49.594;11.022;2023-04-24T10:12:25;15.10;99.90
9762;DHT22;4920;49.594;11.022;2023-04-24T10:14:56;15.60;99.90
9762;DHT22;4920;49.594;11.022;2023-04-24T10:17:26;15.90;99.90
9762;DHT22;4920;49.594;11.022;2023-04-24T10:19:56;16.10;99.90
9762;DHT22;4920;49.594;11.022;2023-04-24T10:22:27;15.90;99.90
9762;DHT22;4920;49.594;11.022;2023-04-24T10:24:58;15.70;99.90
9762;DHT22;4920;49.594;11.022;2023-04-24T10:27:30;15.30;99.90
9762;DHT22;4920;49.594;11.022;2023-04-24T10:30:00;15.00;99.90
9762;DHT22;4920;49.594;11.022;2023-04-24T10:32:28;14.80;99.90
9762;DHT22;4920;49.594;11.022;2023-04-24T10:35:01;14.40;99.90
9762;DHT22;4920;49.594;11.022;2023-04-24T10:37:36;14.20;99.90
9762;DHT22;4920;49.594;11.022;2023-04-24T10:40:07;14.30;99.90
9762;DHT22;4920;49.594;11.022;2023-04-24T10:42:41;14.50;99.90
9762;DHT22;4920;49.594;11.022;2023-04-24T10:45:16;14.60;99.90
9762;DHT22;4920;49.594;11.022;2023-04-24T10:47:52;14.70;99.90
9762;DHT22;4920;49.594;11.022;2023-04-24T10:50:21;14.80;99.90
9762;DHT22;4920;49.594;11.022;2023-04-24T10:52:49;14.80;99.90
9762;DHT22;4920;49.594;11.022;2023-04-24T10:55:41;14.80;99.90
9762;DHT22;4920;49.594;11.022;2023-04-24T10:58:12;14.90;99.90
9762;DHT22;4920;49.594;11.022;2023-04-24T11:00:43;15.00;99.90
9762;DHT22;4920;49.594;11.022;2023-04-24T11:03:27;15.10;99.90
9762;DHT22;4920;49.594;11.022;2023-04-24T11:05:58;15.10;99.90
9762;DHT22;4920;49.594;11.022;2023-04-24T11:08:30;15.00;99.90
9762;DHT22;4920;49.594;11.022;2023-04-24T11:11:08;14.90;99.90
9762;DHT22;4920;49.594;11.022;2023-04-24T11:14:06;15.10;99.90
9762;DHT22;4920;49.594;11.022;2023-04-24T11:16:40;15.30;99.90
9762;DHT22;4920;49.594;11.022;2023-04-24T11:19:21;15.60;99.90
9762;DHT22;4920;49.594;11.022;2023-04-24T11:21:56;15.90;99.90
9762;DHT22;4920;49.594;11.022;2023-04-24T11:24:29;16.20;99.90
9762;DHT22;4920;49.594;11.022;2023-04-24T11:27:05;16.60;99.90
9762;DHT22;4920;49.594;11.022;2023-04-24T11:29:47;17.00;99.90
9762;DHT22;4920;49.594;11.022;2023-04-24T11:32:24;17.40;99.90
9762;DHT22;4920;49.594;11.022;2023-04-24T11:34:54;17.40;99.50
9762;DHT22;4920;49.594;11.022;2023-04-24T11:37:26;17.30;98.30
9762;DHT22;4920;49.594;11.022;2023-04-24T11:39:56;17.10;97.80
9762;DHT22;4920;49.594;11.022;2023-04-24T11:42:25;16.70;97.80
9762;DHT22;4920;49.594;11.022;2023-04-24T11:44:55;16.20;97.00
9762;DHT22;4920;49.594;11.022;2023-04-24T11:47:29;15.60;96.90
9762;DHT22;4920;49.594;11.022;2023-04-24T11:50:00;15.20;98.60
9762;DHT22;4920;49.594;11.022;2023-04-24T11:52:30;14.90;98.90
9762;DHT22;4920;49.594;11.022;2023-04-24T11:54:59;14.80;99.00
9762;DHT22;4920;49.594;11.022;2023-04-24T11:57:29;14.80;98.80
9762;DHT22;4920;49.594;11.022;2023-04-24T12:00:03;15.00;98.70
9762;DHT22;4920;49.594;11.022;2023-04-24T12:02:40;15.30;99.20
9762;DHT22;4920;49.594;11.022;2023-04-24T12:05:21;15.60;98.80
9762;DHT22;4920;49.594;11.022;2023-04-24T12:07:50;15.70;99.90
9762;DHT22;4920;49.594;11.022;2023-04-24T12:10:23;15.80;99.90
9762;DHT22;4920;49.594;11.022;2023-04-24T12:12:52;15.80;99.90
9762;DHT22;4920;49.594;11.022;2023-04-24T12:15:23;15.80;99.90
9762;DHT22;4920;49.594;11.022;2023-04-24T12:17:52;16.00;99.90
9762;DHT22;4920;49.594;11.022;2023-04-24T12:20:24;16.10;99.90
9762;DHT22;4920;49.594;11.022;2023-04-24T12:22:54;16.20;99.90
9762;DHT22;4920;49.594;11.022;2023-04-24T12:25:25;16.40;99.90
9762;DHT22;4920;49.594;11.022;2023-04-24T12:27:55;16.60;99.90
9762;DHT22;4920;49.594;11.022;2023-04-24T12:30:28;16.40;99.90
9762;DHT22;4920;49.594;11.022;2023-04-24T12:32:58;15.90;99.70
9762;DHT22;4920;49.594;11.022;2023-04-24T12:35:30;15.50;99.90
9762;DHT22;4920;49.594;11.022;2023-04-24T12:38:05;15.40;99.90
9762;DHT22;4920;49.594;11.022;2023-04-24T12:40:35;15.40;99.90
9762;DHT22;4920;49.594;11.022;2023-04-24T12:43:13;15.50;99.90
9762;DHT22;4920;49.594;11.022;2023-04-24T12:45:44;15.50;99.90
9762;DHT22;4920;49.594;11.022;2023-04-24T12:48:13;15.30;99.90
9762;DHT22;4920;49.594;11.022;2023-04-24T12:50:42;15.10;99.90
9762;DHT22;4920;49.594;11.022;2023-04-24T12:53:13;14.80;99.90
9762;DHT22;4920;49.594;11.022;2023-04-24T12:55:43;14.50;99.90
9762;DHT22;4920;49.594;11.022;2023-04-24T12:58:12;14.40;99.90
9762;DHT22;4920;49.594;11.022;2023-04-24T13:00:41;14.20;99.90
9762;DHT22;4920;49.594;11.022;2023-04-24T13:03:14;14.10;99.90
9762;DHT22;4920;49.594;11.022;2023-04-24T13:05:43;14.20;99.90
9762;DHT22;4920;49.594;11.022;2023-04-24T13:08:12;14.40;99.90
9762;DHT22;4920;49.594;11.022;2023-04-24T13:10:41;14.70;99.90
9762;DHT22;4920;49.594;11.022;2023-04-24T13:13:10;15.20;99.90
9762;DHT22;4920;49.594;11.022;2023-04-24T13:15:38;15.50;99.90
9762;DHT22;4920;49.594;11.022;2023-04-24T13:18:07;15.70;99.90
9762;DHT22;4920;49.594;11.022;2023-04-24T13:20:37;15.50;99.90
9762;DHT22;4920;49.594;11.022;2023-04-24T13:23:08;15.40;99.70
9762;DHT22;4920;49.594;11.022;2023-04-24T13:25:37;15.10;99.90
9762;DHT22;4920;49.594;11.022;2023-04-24T13:28:06;14.90;99.90
9762;DHT22;4920;49.594;11.022;2023-04-24T13:30:35;14.60;99.90
9762;DHT22;4920;49.594;11.022;2023-04-24T13:33:03;14.40;99.90
9762;DHT22;4920;49.594;11.022;2023-04-24T13:35:32;14.20;99.90
9762;DHT22;4920;49.594;11.022;2023-04-24T13:38:02;14.20;99.90
9762;DHT22;4920;49.594;11.022;2023-04-24T13:40:33;14.20;99.90
9762;DHT22;4920;49.594;11.022;2023-04-24T13:43:02;14.20;99.90
9762;DHT22;4920;49.594;11.022;2023-04-24T13:45:31;14.30;99.90
9762;DHT22;4920;49.594;11.022;2023-04-24T13:48:00;14.70;99.90
9762;DHT22;4920;49.594;11.022;2023-04-24T13:50:30;15.30;99.90
9762;DHT22;4920;49.594;11.022;2023-04-24T13:52:59;15.90;99.90
9762;DHT22;4920;49.594;11.022;2023-04-24T13:55:30;16.40;99.90
9762;DHT22;4920;49.594;11.022;2023-04-24T13:57:59;16.50;99.30
9762;DHT22;4920;49.594;11.022;2023-04-24T14:00:28;16.50;97.50
9762;DHT22;4920;49.594;11.022;2023-04-24T14:02:58;16.30;97.60
9762;DHT22;4920;49.594;11.022;2023-04-24T14:05:27;16.30;99.00
9762;DHT22;4920;49.594;11.022;2023-04-24T14:07:55;16.20;98.20
9762;DHT22;4920;49.594;11.022;2023-04-24T14:10:24;16.00;98.00
9762;DHT22;4920;49.594;11.022;2023-04-24T14:12:55;15.90;98.50
9762;DHT22;4920;49.594;11.022;2023-04-24T14:15:28;15.90;98.90
9762;DHT22;4920;49.594;11.022;2023-04-24T14:17:57;16.00;99.50
9762;DHT22;4920;49.594;11.022;2023-04-24T14:20:26;16.30;99.00
9762;DHT22;4920;49.594;11.022;2023-04-24T14:22:55;16.50;98.70
9762;DHT22;4920;49.594;11.022;2023-04-24T14:25:26;16.50;98.10
9762;DHT22;4920;49.594;11.022;2023-04-24T14:27:56;16.40;98.70
9762;DHT22;4920;49.594;11.022;2023-04-24T14:30:25;16.20;99.10
9762;DHT22;4920;49.594;11.022;2023-04-24T14:32:54;16.20;99.40
9762;DHT22;4920;49.594;11.022;2023-04-24T14:35:22;16.10;99.50
9762;DHT22;4920;49.594;11.022;2023-04-24T14:37:51;15.90;98.90
9762;DHT22;4920;49.594;11.022;2023-04-24T14:40:20;15.50;99.20
9762;DHT22;4920;49.594;11.022;2023-04-24T14:43:10;15.20;99.90
9762;DHT22;4920;49.594;11.022;2023-04-24T14:45:38;14.90;99.90
9762;DHT22;4920;49.594;11.022;2023-04-24T14:48:08;14.80;99.90
9762;DHT22;4920;49.594;11.022;2023-04-24T14:50:38;14.90;99.90
9762;DHT22;4920;49.594;11.022;2023-04-24T14:53:07;15.00;99.90
9762;DHT22;4920;49.594;11.022;2023-04-24T14:55:35;15.10;99.90
9762;DHT22;4920;49.594;11.022;2023-04-24T14:58:04;15.20;99.60
9762;DHT22;4920;49.594;11.022;2023-04-24T15:00:34;15.30;99.40
9762;DHT22;4920;49.594;11.022;2023-04-24T15:03:03;15.50;99.20
9762;DHT22;4920;49.594;11.022;2023-04-24T15:05:32;15.70;98.50
9762;DHT22;4920;49.594;11.022;2023-04-24T15:08:02;15.90;98.90
9762;DHT22;4920;49.594;11.022;2023-04-24T15:10:30;16.00;98.60
9762;DHT22;4920;49.594;11.022;2023-04-24T15:12:59;16.10;97.80
9762;DHT22;4920;49.594;11.022;2023-04-24T15:15:28;16.30;97.80
9762;DHT22;4920;49.594;11.022;2023-04-24T15:17:58;16.50;98.50
9762;DHT22;4920;49.594;11.022;2023-04-24T15:20:27;16.70;97.60
9762;DHT22;4920;49.594;11.022;2023-04-24T15:22:55;16.70;97.00
9762;DHT22;4920;49.594;11.022;2023-04-24T15:25:26;16.60;97.60
9762;DHT22;4920;49.594;11.022;2023-04-24T15:27:55;16.40;97.70
9762;DHT22;4920;49.594;11.022;2023-04-24T15:30:24;16.20;97.90
9762;DHT22;4920;49.594;11.022;2023-04-24T15:32:53;15.90;97.70
9762;DHT22;4920;49.594;11.022;2023-04-24T15:35:23;15.50;98.10
9762;DHT22;4920;49.594;11.022;2023-04-24T15:37:52;15.10;98.40
9762;DHT22;4920;49.594;11.022;2023-04-24T15:40:21;14.80;98.20
9762;DHT22;4920;49.594;11.022;2023-04-24T15:42:49;14.40;98.70
9762;DHT22;4920;49.594;11.022;2023-04-24T15:45:18;14.20;98.00
9762;DHT22;4920;49.594;11.022;2023-04-24T15:47:47;13.90;98.50
9762;DHT22;4920;49.594;11.022;2023-04-24T15:50:17;13.70;99.10
9762;DHT22;4920;49.594;11.022;2023-04-24T15:52:49;13.60;99.30
9762;DHT22;4920;49.594;11.022;2023-04-24T15:55:21;13.40;99.40
9762;DHT22;4920;49.594;11.022;2023-04-24T15:57:49;13.20;99.70
9762;DHT22;4920;49.594;11.022;2023-04-24T16:00:19;13.10;99.90
9762;DHT22;4920;49.594;11.022;2023-04-24T16:02:48;13.00;99.90
9762;DHT22;4920;49.594;11.022;2023-04-24T16:05:18;12.90;99.90
9762;DHT22;4920;49.594;11.022;2023-04-24T16:07:50;12.90;99.90